createdAt,value
2022-08-07T00:02:37.131Z,74.21
2022-08-07T00:07:20.863Z,74.11
2022-08-07T00:12:23.935Z,74.19
2022-08-07T00:17:28.905Z,74.24
2022-08-07T00:22:38.104Z,74.49
2022-08-07T00:27:53.774Z,74.58
2022-08-07T00:33:01.187Z,74.59
2022-08-07T00:38:05.761Z,74.72
2022-08-07T00:43:59.020Z,74.65
2022-08-07T00:48:33.248Z,75.29
2022-08-07T00:53:39.247Z,75.75
2022-08-07T00:58:53.130Z,76.04
2022-08-07T01:04:00.074Z,76.12
2022-08-07T01:09:04.780Z,76.42
2022-08-07T01:14:08.949Z,76.30
2022-08-07T01:19:18.468Z,76.44
2022-08-07T01:24:23.129Z,76.38
2022-08-07T01:29:31.431Z,76.44
2022-08-07T01:34:37.251Z,76.50
2022-08-07T01:39:46.584Z,76.71
2022-08-07T01:44:49.936Z,77.07
2022-08-07T01:49:54.616Z,77.40
2022-08-07T01:55:01.070Z,77.39
2022-08-07T02:00:13.172Z,77.48
2022-08-07T02:05:48.222Z,77.45
2022-08-07T02:10:59.613Z,77.55
2022-08-07T02:16:04.880Z,77.73
2022-08-07T02:21:16.045Z,77.93
2022-08-07T02:26:33.062Z,77.79
2022-08-07T02:31:39.353Z,77.96
2022-08-07T02:36:45.212Z,77.94
2022-08-07T02:41:54.771Z,77.98
2022-08-07T02:47:00.915Z,77.88
2022-08-07T02:52:06.933Z,77.80
2022-08-07T02:57:14.352Z,77.60
2022-08-07T03:02:18.238Z,77.61
2022-08-07T03:07:21.513Z,77.68
2022-08-07T03:12:46.716Z,77.82
2022-08-07T03:17:53.470Z,77.81
2022-08-07T03:22:58.703Z,77.87
2022-08-07T03:28:09.529Z,77.85
2022-08-07T03:33:26.602Z,77.88
2022-08-07T03:38:36.258Z,77.73
2022-08-07T03:43:40.361Z,77.56
2022-08-07T03:49:02.512Z,77.38
2022-08-07T03:54:35.746Z,77.29
2022-08-07T03:59:29.461Z,76.79
2022-08-07T04:04:32.956Z,76.59
2022-08-07T04:09:45.236Z,76.31
2022-08-07T04:14:54.454Z,76.07
2022-08-07T04:19:59.079Z,76.06
2022-08-07T04:25:02.441Z,75.70
2022-08-07T04:30:11.813Z,75.30
2022-08-07T04:35:17.239Z,74.86
2022-08-07T04:40:20.325Z,74.49
2022-08-07T04:45:57.859Z,74.16
2022-08-07T04:51:32.101Z,73.67
2022-08-07T04:58:24.305Z,73.00
2022-08-07T05:02:21.098Z,72.21
2022-08-07T05:07:55.419Z,70.72
2022-08-07T05:14:44.904Z,70.06
2022-08-07T05:18:47.509Z,69.28
2022-08-07T05:24:01.422Z,67.97
2022-08-07T05:29:08.173Z,66.76
2022-08-07T05:34:15.703Z,66.90
2022-08-07T05:40:05.774Z,65.88
2022-08-07T05:44:52.961Z,63.89
2022-08-07T05:50:09.064Z,60.75
2022-08-07T05:55:12.399Z,57.71
2022-08-07T06:00:18.442Z,55.49
2022-08-07T06:05:28.892Z,53.79
2022-08-07T06:10:33.307Z,51.27
2022-08-07T06:15:41.939Z,49.40
2022-08-07T06:20:50.350Z,47.29
2022-08-07T06:26:14.524Z,45.65
2022-08-07T06:31:17.706Z,43.78
2022-08-07T06:36:27.490Z,42.56
2022-08-07T06:42:03.469Z,40.61
2022-08-07T06:47:10.421Z,38.14
2022-08-07T06:52:31.694Z,36.40
2022-08-07T06:57:48.345Z,34.88
2022-08-07T07:02:58.247Z,33.79
2022-08-07T07:08:06.740Z,31.98
2022-08-07T07:13:17.093Z,30.34
2022-08-07T07:18:48.792Z,29.40
2022-08-07T07:24:08.280Z,29.12
2022-08-07T07:29:56.835Z,28.13
2022-08-07T07:34:45.459Z,26.64
2022-08-07T07:39:54.477Z,25.24
2022-08-07T07:45:01.729Z,23.23
2022-08-07T07:50:34.144Z,21.38
2022-08-07T07:55:37.820Z,21.04
2022-08-07T08:00:53.797Z,20.05
2022-08-07T08:05:56.948Z,19.15
2022-08-07T08:11:01.213Z,18.11
2022-08-07T08:16:06.244Z,18.12
2022-08-07T08:22:00.665Z,18.01
2022-08-07T08:27:09.773Z,17.03
2022-08-07T08:32:25.209Z,16.06
2022-08-07T08:38:00.861Z,15.52
2022-08-07T08:43:05.625Z,17.53
2022-08-07T08:49:06.304Z,18.76
2022-08-07T08:54:24.694Z,16.78
2022-08-07T08:59:53.885Z,15.41
2022-08-07T09:05:21.515Z,14.37
2022-08-07T09:10:44.362Z,14.01
2022-08-07T09:16:23.251Z,13.42
2022-08-07T09:21:34.012Z,12.74
2022-08-07T09:27:31.116Z,12.29
2022-08-07T09:32:53.213Z,12.03
2022-08-07T09:38:10.351Z,11.45
2022-08-07T09:44:03.444Z,11.32
2022-08-07T09:50:01.949Z,10.75
2022-08-07T09:54:40.477Z,10.74
2022-08-07T10:00:02.079Z,11.10
2022-08-07T10:05:15.526Z,11.24
2022-08-07T10:11:07.698Z,10.55
2022-08-07T10:16:16.085Z,10.53
2022-08-07T10:22:12.156Z,10.72
2022-08-07T10:27:24.338Z,10.82
2022-08-07T10:33:13.071Z,10.62
2022-08-07T10:38:48.348Z,9.87
2022-08-07T10:44:02.404Z,9.49
2022-08-07T10:49:45.395Z,9.33
2022-08-07T10:55:01.834Z,9.01
2022-08-07T11:00:39.774Z,9.43
2022-08-07T11:06:09.962Z,9.57
2022-08-07T11:11:36.011Z,11.81
2022-08-07T11:16:54.607Z,12.91
2022-08-07T11:22:32.440Z,12.22
2022-08-07T11:28:04.423Z,11.38
2022-08-07T11:33:19.081Z,10.76
2022-08-07T11:39:10.049Z,10.03
2022-08-07T11:44:22.632Z,9.63
2022-08-07T11:50:18.508Z,10.01
2022-08-07T11:56:25.688Z,10.39
2022-08-07T12:01:22.232Z,11.10
2022-08-07T12:06:50.873Z,12.35
2022-08-07T12:12:12.708Z,15.62
2022-08-07T12:17:22.050Z,17.80
2022-08-07T12:22:37.446Z,17.27
2022-08-07T12:28:05.753Z,16.62
2022-08-07T12:33:23.321Z,17.89
2022-08-07T12:38:42.615Z,20.19
2022-08-07T12:44:02.193Z,22.81
2022-08-07T12:49:40.185Z,24.49
2022-08-07T12:55:05.356Z,25.96
2022-08-07T13:00:21.005Z,27.07
2022-08-07T13:06:21.562Z,27.90
2022-08-07T13:12:00.968Z,28.32
2022-08-07T13:17:18.365Z,28.52
2022-08-07T13:22:34.392Z,28.57
2022-08-07T13:28:11.704Z,26.30
2022-08-07T13:34:31.954Z,22.92
2022-08-07T13:39:01.132Z,20.65
2022-08-07T13:44:10.373Z,19.62
2022-08-07T13:50:35.896Z,20.45
2022-08-07T13:54:49.346Z,22.51
2022-08-07T13:59:56.024Z,23.33
2022-08-07T14:05:06.317Z,24.38
2022-08-07T14:10:20.468Z,25.07
2022-08-07T14:15:44.493Z,24.97
2022-08-07T14:21:07.861Z,23.73
2022-08-07T14:26:30.376Z,22.83
2022-08-07T14:31:43.161Z,21.89
2022-08-07T14:36:56.774Z,22.30
2022-08-07T14:42:20.319Z,23.57
2022-08-07T14:47:26.814Z,24.76
2022-08-07T14:52:34.168Z,25.86
2022-08-07T14:57:58.781Z,26.78
2022-08-07T15:03:16.668Z,27.50
2022-08-07T15:08:54.864Z,27.96
2022-08-07T15:14:20.983Z,28.14
2022-08-07T15:20:30.322Z,28.03
2022-08-07T15:25:13.102Z,28.54
2022-08-07T15:30:17.590Z,29.81
2022-08-07T15:36:00.484Z,30.94
2022-08-07T15:41:23.048Z,31.77
2022-08-07T15:46:37.273Z,32.50
2022-08-07T15:57:02.221Z,33.52
2022-08-07T16:02:08.521Z,34.23
2022-08-07T16:08:28.995Z,34.70
2022-08-07T16:13:05.399Z,35.20
2022-08-07T16:18:08.948Z,35.62
2022-08-07T16:23:54.209Z,35.67
2022-08-07T16:30:10.207Z,35.43
2022-08-07T16:34:57.825Z,35.08
2022-08-07T16:40:30.613Z,35.40
2022-08-07T16:47:04.671Z,35.76
2022-08-07T16:52:50.531Z,36.07
2022-08-07T16:58:01.951Z,36.54
2022-08-07T17:03:17.276Z,36.97
2022-08-07T17:09:09.837Z,37.07
2022-08-07T17:14:18.454Z,37.79
2022-08-07T17:20:02.567Z,38.31
2022-08-07T17:25:20.153Z,38.98
2022-08-07T17:30:58.459Z,39.56
2022-08-07T17:36:13.624Z,40.32
2022-08-07T17:42:04.379Z,40.67
2022-08-07T17:47:17.040Z,41.09
2022-08-07T17:52:31.285Z,42.12
2022-08-07T17:57:58.625Z,42.83
2022-08-07T18:03:25.498Z,43.97
2022-08-07T18:09:01.003Z,45.03
2022-08-07T18:14:17.041Z,45.82
2022-08-07T18:21:08.514Z,46.56
2022-08-07T18:25:24.322Z,47.18
2022-08-07T18:30:39.381Z,48.02
2022-08-07T18:36:11.126Z,48.58
2022-08-07T18:41:45.843Z,49.27
2022-08-07T18:47:01.773Z,49.98
2022-08-07T18:52:52.657Z,50.60
2022-08-07T18:58:20.195Z,51.35
2022-08-07T19:03:37.917Z,51.89
2022-08-07T19:08:58.848Z,53.08
2022-08-07T19:14:36.639Z,53.92
2022-08-07T19:20:04.741Z,54.40
2022-08-07T19:26:23.199Z,54.93
2022-08-07T19:31:05.678Z,55.40
2022-08-07T19:36:04.271Z,55.90
2022-08-07T19:41:08.159Z,56.36
2022-08-07T19:46:17.840Z,56.71
2022-08-07T19:51:50.812Z,57.10
2022-08-07T19:58:01.761Z,57.53
2022-08-07T20:02:26.908Z,58.28
2022-08-07T20:07:46.433Z,58.54
2022-08-07T20:12:54.052Z,59.31
2022-08-07T20:18:03.380Z,59.83
2022-08-07T20:23:41.599Z,60.31
2022-08-07T20:28:38.390Z,60.49
2022-08-07T20:33:45.922Z,61.04
2022-08-07T20:38:59.487Z,61.29
2022-08-07T20:44:04.278Z,61.65
2022-08-07T20:49:58.518Z,61.88
2022-08-07T20:54:53.896Z,62.45
2022-08-07T21:00:08.448Z,62.72
2022-08-07T21:05:18.401Z,62.60
2022-08-07T21:10:44.364Z,62.52
2022-08-07T21:15:59.961Z,62.32
2022-08-07T21:21:04.726Z,62.51
2022-08-07T21:26:13.209Z,62.27
2022-08-07T21:32:43.006Z,62.36
2022-08-07T21:37:57.324Z,62.15
2022-08-07T21:43:10.782Z,62.18
2022-08-07T21:48:48.205Z,62.60
2022-08-07T21:54:12.732Z,62.92
2022-08-07T21:59:26.692Z,62.78
2022-08-07T22:04:37.438Z,62.76
2022-08-07T22:09:54.117Z,62.56
2022-08-07T22:16:42.654Z,62.68
2022-08-07T22:20:33.816Z,62.78
2022-08-07T22:25:59.181Z,63.28
2022-08-07T22:31:56.435Z,63.35
2022-08-07T22:36:59.243Z,63.55
2022-08-07T22:42:19.961Z,63.71
2022-08-07T22:47:49.472Z,63.99
2022-08-07T22:53:08.116Z,64.16
2022-08-07T22:58:28.301Z,64.52
2022-08-07T23:04:02.827Z,64.61
2022-08-07T23:10:03.925Z,64.74
2022-08-07T23:15:21.932Z,64.86
2022-08-07T23:20:52.813Z,64.79
2022-08-07T23:26:05.650Z,65.41
2022-08-07T23:32:49.421Z,65.43
2022-08-07T23:37:29.228Z,65.82
2022-08-07T23:42:41.257Z,65.96
2022-08-07T23:47:48.178Z,66.37
2022-08-07T23:53:16.985Z,66.63
2022-08-07T23:58:30.359Z,66.77
